Time;durP1;ratioP1;P1;durP2;ratioP2;P2;SDS_P1;SDS_P2;PMS_P1;PMS_P2;Temp;Humidity;BMP_temperature;BMP_pressure;BME280_temperature;BME280_humidity;BME280_pressure;Samples;Min_cycle;Max_cycle;Signal;HPM_P1;HPM_P2
2023/01/12 00:01:26;;;;;;;0.20;0.10;;;;;;;;;;5005832;28;20413;-87
2023/01/12 00:03:53;;;;;;;3.58;0.73;;;;;;;;;;5014784;28;20053;-87
2023/01/12 00:06:19;;;;;;;0.20;0.10;;;;;;;;;;5002155;28;20041;-85
2023/01/12 00:08:49;;;;;;;0.20;0.10;;;;;;;;;;5020268;28;20455;-87
2023/01/12 00:11:16;;;;;;;0.20;0.10;;;;;;;;;;5003188;28;20037;-87
2023/01/12 00:13:44;;;;;;;0.28;0.20;;;;;;;;;;5005568;28;20038;-85
2023/01/12 00:19:22;;;;;;;0.20;0.10;;;;;;;;;;5023024;28;20041;-86
2023/01/12 00:22:01;;;;;;;0.20;0.10;;;;;;;;;;5010432;28;20116;-86
2023/01/12 00:24:29;;;;;;;0.20;0.03;;;;;;;;;;4995895;28;20044;-86
2023/01/12 00:26:56;;;;;;;0.20;0.10;;;;;;;;;;5018646;28;20034;-85
2023/01/12 00:29:22;;;;;;;0.20;0.10;;;;;;;;;;5019752;28;20077;-88
2023/01/12 00:31:51;;;;;;;0.20;0.10;;;;;;;;;;5012333;28;20034;-84
2023/01/12 00:34:17;;;;;;;0.65;0.40;;;;;;;;;;5007795;28;20047;-89
2023/01/12 00:36:44;;;;;;;0.20;0.10;;;;;;;;;;4995737;28;20053;-87
2023/01/12 00:39:14;;;;;;;0.20;0.17;;;;;;;;;;5004376;28;20099;-87
2023/01/12 00:47:13;;;;;;;0.20;0.10;;;;;;;;;;5017337;28;20141;-87
2023/01/12 00:49:42;;;;;;;0.60;0.25;;;;;;;;;;4996869;28;20030;-86
2023/01/12 00:52:16;;;;;;;0.20;0.10;;;;;;;;;;4988171;28;20038;-84
2023/01/12 00:54:42;;;;;;;0.20;0.10;;;;;;;;;;5009227;28;20046;-85
2023/01/12 00:57:08;;;;;;;0.20;0.10;;;;;;;;;;5007348;28;20038;-86
2023/01/12 00:59:34;;;;;;;0.20;0.10;;;;;;;;;;5012300;28;20049;-86
2023/01/12 01:02:00;;;;;;;0.20;0.10;;;;;;;;;;5018701;28;20045;-87
2023/01/12 01:04:26;;;;;;;0.20;0.10;;;;;;;;;;4986594;28;20120;-86
2023/01/12 01:06:52;;;;;;;0.22;0.15;;;;;;;;;;5007490;28;20046;-84
2023/01/12 01:09:19;;;;;;;0.20;0.10;;;;;;;;;;4999590;28;20040;-85
2023/01/12 01:11:45;;;;;;;0.20;0.10;;;;;;;;;;5008435;28;20088;-87
2023/01/12 01:14:11;;;;;;;0.20;0.10;;;;;;;;;;4990272;28;20038;-87
2023/01/12 01:16:43;;;;;;;0.20;0.10;;;;;;;;;;4992728;28;20049;-86
2023/01/12 01:19:09;;;;;;;0.20;0.10;;;;;;;;;;5002225;28;20045;-87
2023/01/12 01:21:35;;;;;;;0.20;0.10;;;;;;;;;;5018784;28;20787;-86
2023/01/12 01:24:01;;;;;;;1.50;0.47;;;;;;;;;;5024553;28;20320;-86
2023/01/12 01:26:29;;;;;;;0.20;0.10;;;;;;;;;;4997808;28;20042;-86
2023/01/12 01:28:56;;;;;;;0.20;0.10;;;;;;;;;;5007829;28;20497;-86
2023/01/12 01:31:22;;;;;;;0.20;0.10;;;;;;;;;;5022788;28;20038;-88
2023/01/12 01:33:51;;;;;;;0.55;0.30;;;;;;;;;;5006185;28;20033;-84
2023/01/12 01:36:21;;;;;;;0.20;0.10;;;;;;;;;;5008105;28;20052;-85
2023/01/12 01:38:53;;;;;;;;;;;;;;;;;;4988164;28;20069;-87
2023/01/12 01:41:24;;;;;;;0.20;0.10;;;;;;;;;;5008438;28;19918;-86
2023/01/12 01:44:07;;;;;;;0.25;0.25;;;;;;;;;;5005297;28;20121;-88
2023/01/12 01:46:36;;;;;;;0.20;0.10;;;;;;;;;;4991691;28;20116;-87
2023/01/12 01:49:07;;;;;;;1.85;1.42;;;;;;;;;;4998556;28;20050;-88
2023/01/12 01:51:36;;;;;;;0.20;0.10;;;;;;;;;;4989870;28;20045;-88
2023/01/12 01:54:03;;;;;;;0.20;0.10;;;;;;;;;;4989252;28;20634;-88
2023/01/12 01:56:30;;;;;;;0.20;0.10;;;;;;;;;;4987263;28;20556;-87
2023/01/12 01:59:02;;;;;;;0.20;0.10;;;;;;;;;;5010131;28;20067;-88
2023/01/12 02:01:28;;;;;;;0.20;0.10;;;;;;;;;;4986515;28;20045;-85
2023/01/12 02:03:55;;;;;;;0.32;0.25;;;;;;;;;;5007318;28;20492;-86
2023/01/12 02:06:24;;;;;;;0.20;0.10;;;;;;;;;;5009227;28;20033;-89
2023/01/12 02:08:50;;;;;;;0.20;0.10;;;;;;;;;;5002064;28;20045;-87
2023/01/12 02:17:08;;;;;;;0.20;0.10;;;;;;;;;;5003219;28;20125;-88
2023/01/12 02:19:58;;;;;;;0.20;0.10;;;;;;;;;;5000434;28;20088;-87
2023/01/12 02:22:39;;;;;;;0.20;0.10;;;;;;;;;;5030922;28;20033;-87
2023/01/12 02:25:31;;;;;;;0.20;0.10;;;;;;;;;;4990424;28;20042;-88
2023/01/12 02:28:07;;;;;;;0.20;0.10;;;;;;;;;;4972211;28;20108;-86
2023/01/12 02:30:33;;;;;;;0.20;0.10;;;;;;;;;;5009037;28;20088;-87
2023/01/12 02:33:05;;;;;;;0.20;0.10;;;;;;;;;;5001227;28;20054;-86
2023/01/12 02:35:34;;;;;;;0.20;0.10;;;;;;;;;;4992675;28;20049;-87
2023/01/12 02:38:11;;;;;;;0.43;0.43;;;;;;;;;;5046528;23;20135;-84
2023/01/12 02:41:04;;;;;;;0.20;0.10;;;;;;;;;;5073639;28;20042;-84
2023/01/12 02:43:31;;;;;;;0.25;0.10;;;;;;;;;;5000534;28;20077;-83
2023/01/12 02:46:00;;;;;;;0.20;0.10;;;;;;;;;;5065185;28;20051;-82
2023/01/12 02:48:26;;;;;;;0.20;0.10;;;;;;;;;;5030421;28;20082;-84
2023/01/12 02:51:07;;;;;;;0.20;0.10;;;;;;;;;;5046945;28;20044;-84
2023/01/12 02:53:42;;;;;;;3.92;2.47;;;;;;;;;;5056756;28;20514;-83
2023/01/12 02:56:09;;;;;;;0.20;0.10;;;;;;;;;;5039177;28;20445;-85
2023/01/12 02:58:38;;;;;;;0.20;0.10;;;;;;;;;;5041623;28;20037;-83
2023/01/12 03:01:05;;;;;;;0.20;0.10;;;;;;;;;;5035951;28;20720;-85
2023/01/12 03:03:31;;;;;;;0.20;0.10;;;;;;;;;;5031649;28;20043;-84
2023/01/12 03:06:00;;;;;;;0.20;0.10;;;;;;;;;;5054349;28;20033;-84
2023/01/12 03:08:27;;;;;;;0.20;0.10;;;;;;;;;;5044253;28;20025;-84
2023/01/12 03:11:10;;;;;;;0.20;0.10;;;;;;;;;;5057854;28;20045;-83
2023/01/12 03:13:39;;;;;;;0.20;0.10;;;;;;;;;;5046965;28;20437;-82
2023/01/12 03:16:05;;;;;;;0.20;0.10;;;;;;;;;;5057836;28;20044;-84
2023/01/12 03:18:48;;;;;;;0.20;0.10;;;;;;;;;;5049020;28;20048;-85
2023/01/12 03:21:28;;;;;;;0.20;0.10;;;;;;;;;;5049612;28;20499;-85
2023/01/12 03:24:00;;;;;;;0.20;0.10;;;;;;;;;;5043203;28;20514;-83
2023/01/12 03:26:27;;;;;;;0.20;0.10;;;;;;;;;;5036450;28;20037;-83
2023/01/12 03:28:58;;;;;;;0.20;0.20;;;;;;;;;;5032076;28;20542;-84
2023/01/12 03:31:24;;;;;;;0.20;0.10;;;;;;;;;;5036227;28;20045;-83
2023/01/12 03:33:53;;;;;;;0.22;0.20;;;;;;;;;;5045971;28;20503;-86
2023/01/12 03:36:22;;;;;;;0.20;0.10;;;;;;;;;;5053051;28;20427;-83
2023/01/12 03:38:58;;;;;;;0.20;0.10;;;;;;;;;;5038426;28;20174;-82
2023/01/12 03:41:50;;;;;;;0.20;0.10;;;;;;;;;;5047655;28;20044;-84
2023/01/12 03:44:20;;;;;;;0.20;0.10;;;;;;;;;;5001138;28;20069;-84
2023/01/12 03:46:52;;;;;;;0.20;0.10;;;;;;;;;;5034510;28;20128;-83
2023/01/12 03:49:45;;;;;;;0.25;0.25;;;;;;;;;;5050781;28;20459;-82
2023/01/12 03:52:11;;;;;;;1.05;0.20;;;;;;;;;;4989358;28;20041;-85
2023/01/12 03:54:41;;;;;;;0.30;0.30;;;;;;;;;;5034067;28;20070;-83
2023/01/12 03:57:08;;;;;;;0.20;0.10;;;;;;;;;;5050118;28;20515;-81
2023/01/12 03:59:34;;;;;;;0.30;0.20;;;;;;;;;;5051330;28;20071;-85
2023/01/12 04:02:00;;;;;;;0.20;0.10;;;;;;;;;;5033431;28;20083;-86
2023/01/12 04:04:26;;;;;;;0.20;0.10;;;;;;;;;;5051878;28;20068;-84
2023/01/12 04:06:52;;;;;;;0.20;0.10;;;;;;;;;;5047500;28;20127;-83
2023/01/12 04:09:21;;;;;;;0.20;0.20;;;;;;;;;;5023774;28;20591;-83
2023/01/12 04:14:32;;;;;;;13.82;0.47;;;;;;;;;;5042722;28;20044;-83
2023/01/12 04:16:58;;;;;;;0.20;0.10;;;;;;;;;;5029038;28;20063;-83
2023/01/12 04:19:24;;;;;;;0.20;0.10;;;;;;;;;;5051498;28;20055;-84
2023/01/12 04:24:34;;;;;;;0.20;0.10;;;;;;;;;;5052067;28;20414;-84
2023/01/12 04:27:01;;;;;;;0.20;0.10;;;;;;;;;;5059449;28;20075;-84
2023/01/12 04:29:27;;;;;;;0.43;0.43;;;;;;;;;;5042278;28;20036;-82
2023/01/12 04:31:52;;;;;;;0.20;0.10;;;;;;;;;;5061509;28;20513;-84
2023/01/12 04:34:19;;;;;;;0.20;0.10;;;;;;;;;;5046251;28;20204;-83
2023/01/12 04:36:45;;;;;;;0.20;0.10;;;;;;;;;;5047780;28;20067;-83
2023/01/12 04:39:11;;;;;;;0.20;0.10;;;;;;;;;;5043977;28;20040;-84
2023/01/12 04:41:37;;;;;;;0.20;0.20;;;;;;;;;;5046790;28;20534;-84
2023/01/12 04:44:06;;;;;;;0.20;0.10;;;;;;;;;;5055232;28;20050;-83
2023/01/12 04:46:32;;;;;;;0.20;0.10;;;;;;;;;;5039721;28;20043;-82
2023/01/12 04:48:58;;;;;;;0.20;0.10;;;;;;;;;;5043990;28;20036;-85
2023/01/12 04:51:25;;;;;;;0.20;0.10;;;;;;;;;;5045532;28;20044;-84
2023/01/12 04:53:51;;;;;;;0.20;0.10;;;;;;;;;;5038442;28;20060;-84
2023/01/12 04:56:17;;;;;;;0.20;0.10;;;;;;;;;;5026608;28;20075;-83
2023/01/12 04:58:43;;;;;;;0.20;0.10;;;;;;;;;;5054537;28;20035;-84
2023/01/12 05:01:09;;;;;;;0.20;0.10;;;;;;;;;;5035113;28;20033;-84
2023/01/12 05:03:35;;;;;;;0.20;0.10;;;;;;;;;;5037734;28;20488;-83
2023/01/12 05:06:02;;;;;;;0.20;0.13;;;;;;;;;;5052423;28;20419;-83
2023/01/12 05:11:12;;;;;;;0.20;0.10;;;;;;;;;;5048450;28;20503;-84
2023/01/12 05:13:38;;;;;;;0.20;0.10;;;;;;;;;;5058022;28;20090;-83
2023/01/12 05:16:09;;;;;;;0.20;0.10;;;;;;;;;;5033216;28;20067;-81
2023/01/12 05:18:37;;;;;;;0.20;0.10;;;;;;;;;;5026819;28;20037;-83
2023/01/12 05:21:04;;;;;;;0.20;0.10;;;;;;;;;;5037075;28;20553;-87
2023/01/12 05:23:30;;;;;;;0.20;0.10;;;;;;;;;;5036120;28;20084;-83
2023/01/12 05:26:03;;;;;;;0.20;0.10;;;;;;;;;;5038603;28;20451;-83
2023/01/12 05:28:29;;;;;;;0.20;0.10;;;;;;;;;;5032120;28;20090;-87
2023/01/12 05:31:00;;;;;;;0.20;0.10;;;;;;;;;;5035972;28;20108;-86
2023/01/12 05:33:26;;;;;;;0.20;0.10;;;;;;;;;;5037020;28;20144;-85
2023/01/12 05:35:52;;;;;;;0.20;0.10;;;;;;;;;;5058391;28;20567;-84
2023/01/12 05:38:18;;;;;;;0.32;0.32;;;;;;;;;;5059920;28;20037;-83
2023/01/12 05:40:44;;;;;;;0.20;0.10;;;;;;;;;;5025566;28;20037;-84
2023/01/12 05:46:02;;;;;;;0.20;0.10;;;;;;;;;;5057860;28;20063;-85
2023/01/12 05:48:29;;;;;;;0.20;0.10;;;;;;;;;;5032431;28;20531;-84
2023/01/12 05:50:58;;;;;;;0.20;0.10;;;;;;;;;;5029154;28;20144;-83
2023/01/12 05:53:24;;;;;;;0.20;0.10;;;;;;;;;;5028502;28;20049;-84
2023/01/12 05:55:50;;;;;;;0.20;0.10;;;;;;;;;;5027302;28;20041;-83
2023/01/12 05:58:16;;;;;;;0.20;0.10;;;;;;;;;;5043810;28;20431;-84
2023/01/12 06:00:42;;;;;;;0.20;0.10;;;;;;;;;;5044305;28;20048;-84
2023/01/12 06:03:08;;;;;;;0.20;0.10;;;;;;;;;;5042637;28;20029;-87
2023/01/12 06:05:34;;;;;;;0.20;0.10;;;;;;;;;;5042939;28;20033;-84
2023/01/12 06:08:01;;;;;;;0.20;0.10;;;;;;;;;;5027959;28;20037;-85
2023/01/12 06:10:27;;;;;;;0.20;0.10;;;;;;;;;;5043166;28;20037;-84
2023/01/12 06:15:38;;;;;;;0.20;0.10;;;;;;;;;;5047292;28;20041;-86
2023/01/12 06:18:04;;;;;;;0.20;0.10;;;;;;;;;;5037003;28;20517;-84
2023/01/12 06:20:31;;;;;;;0.20;0.10;;;;;;;;;;5054381;28;20106;-82
2023/01/12 06:23:03;;;;;;;0.20;0.10;;;;;;;;;;5046313;28;20152;-84
2023/01/12 06:25:29;;;;;;;;;;;;;;;;;;5044975;28;20098;-83
2023/01/12 06:27:56;;;;;;;0.20;0.10;;;;;;;;;;5042939;28;19917;-85
2023/01/12 06:30:22;;;;;;;0.20;0.10;;;;;;;;;;5045235;28;20048;-84
2023/01/12 06:32:48;;;;;;;0.20;0.10;;;;;;;;;;5039215;28;20044;-84
2023/01/12 06:35:14;;;;;;;0.20;0.10;;;;;;;;;;5027479;28;20124;-84
2023/01/12 06:37:40;;;;;;;0.20;0.10;;;;;;;;;;5044413;28;20049;-86
2023/01/12 06:40:06;;;;;;;0.20;0.10;;;;;;;;;;5035241;28;20055;-85
2023/01/12 06:42:32;;;;;;;0.20;0.10;;;;;;;;;;5044836;28;20048;-84
2023/01/12 06:44:59;;;;;;;0.20;0.10;;;;;;;;;;5042283;28;20036;-86
2023/01/12 06:47:27;;;;;;;0.20;0.10;;;;;;;;;;5045194;28;20036;-85
2023/01/12 06:49:53;;;;;;;0.20;0.10;;;;;;;;;;5042915;28;20649;-83
2023/01/12 06:52:20;;;;;;;0.20;0.10;;;;;;;;;;5044364;28;20075;-85
2023/01/12 06:54:50;;;;;;;0.20;0.10;;;;;;;;;;5029701;28;20048;-86
2023/01/12 06:57:16;;;;;;;0.20;0.10;;;;;;;;;;5045497;28;20131;-84
2023/01/12 06:59:42;;;;;;;0.25;0.20;;;;;;;;;;5045474;28;20140;-84
2023/01/12 07:02:14;;;;;;;0.20;0.10;;;;;;;;;;5027497;28;20056;-82
2023/01/12 07:04:41;;;;;;;0.20;0.10;;;;;;;;;;5044182;28;20033;-85
2023/01/12 07:07:08;;;;;;;0.20;0.10;;;;;;;;;;5030684;28;20071;-86
2023/01/12 07:09:34;;;;;;;0.20;0.10;;;;;;;;;;5032096;28;20045;-85
2023/01/12 07:12:03;;;;;;;0.20;0.10;;;;;;;;;;5049408;28;20128;-84
2023/01/12 07:14:29;;;;;;;0.20;0.10;;;;;;;;;;5032806;28;20123;-84
2023/01/12 07:16:55;;;;;;;0.20;0.10;;;;;;;;;;5032691;28;20043;-86
2023/01/12 07:19:21;;;;;;;0.20;0.10;;;;;;;;;;5029119;28;20048;-83
2023/01/12 07:21:54;;;;;;;0.20;0.10;;;;;;;;;;5028169;28;20041;-83
2023/01/12 07:24:20;;;;;;;0.20;0.10;;;;;;;;;;5029966;28;20095;-84
2023/01/12 07:26:52;;;;;;;0.20;0.20;;;;;;;;;;5030971;28;20431;-85
2023/01/12 07:29:18;;;;;;;;;;;;;;;;;;5051825;28;20037;-83
2023/01/12 07:31:47;;;;;;;0.20;0.10;;;;;;;;;;5032034;28;19947;-85
2023/01/12 07:34:13;;;;;;;0.20;0.10;;;;;;;;;;5050210;28;20052;-85
2023/01/12 07:36:40;;;;;;;0.20;0.10;;;;;;;;;;5056015;28;20036;-86
2023/01/12 07:39:07;;;;;;;0.20;0.10;;;;;;;;;;5054088;28;20037;-83
2023/01/12 07:44:18;;;;;;;0.20;0.10;;;;;;;;;;5053074;28;20342;-82
2023/01/12 07:46:44;;;;;;;0.20;0.10;;;;;;;;;;5072547;22;20024;-84
2023/01/12 07:49:14;;;;;;;0.20;0.10;;;;;;;;;;5017654;28;20491;-85
2023/01/12 07:51:42;;;;;;;0.20;0.10;;;;;;;;;;5029501;28;20583;-85
2023/01/12 07:54:08;;;;;;;0.20;0.10;;;;;;;;;;5023110;28;20061;-85
2023/01/12 07:56:35;;;;;;;0.20;0.10;;;;;;;;;;5013266;28;20160;-86
2023/01/12 07:59:01;;;;;;;0.20;0.10;;;;;;;;;;5042358;28;20037;-86
2023/01/12 08:01:27;;;;;;;0.20;0.10;;;;;;;;;;5019844;23;20054;-87
2023/01/12 08:03:53;;;;;;;0.20;0.10;;;;;;;;;;5014303;28;20099;-85
2023/01/12 08:06:19;;;;;;;0.20;0.10;;;;;;;;;;5010600;28;20093;-88
2023/01/12 08:08:45;;;;;;;0.20;0.10;;;;;;;;;;4994505;28;20046;-87
2023/01/12 08:11:12;;;;;;;0.20;0.10;;;;;;;;;;5003563;28;20045;-86
2023/01/12 08:13:39;;;;;;;0.20;0.10;;;;;;;;;;5001430;28;20041;-88
2023/01/12 08:16:08;;;;;;;0.20;0.10;;;;;;;;;;4993109;28;20042;-86
2023/01/12 08:18:39;;;;;;;0.20;0.10;;;;;;;;;;4974669;28;20046;-88
2023/01/12 08:21:09;;;;;;;0.20;0.10;;;;;;;;;;4997266;28;20038;-85
2023/01/12 08:23:40;;;;;;;0.20;0.10;;;;;;;;;;4995779;28;20030;-90
2023/01/12 08:26:10;;;;;;;0.20;0.17;;;;;;;;;;4969744;28;20074;-88
2023/01/12 08:28:40;;;;;;;0.20;0.10;;;;;;;;;;4987565;28;20069;-86
2023/01/12 08:31:10;;;;;;;0.20;0.10;;;;;;;;;;5007305;28;20188;-88
2023/01/12 08:33:47;;;;;;;;;;;;;;;;;;;;;
2023/01/12 08:36:15;;;;;;;0.20;0.10;;;;;;;;;;4991091;28;20485;-88
2023/01/12 08:38:41;;;;;;;0.20;0.10;;;;;;;;;;5009263;28;20038;-85
2023/01/12 08:44:01;;;;;;;0.20;0.10;;;;;;;;;;4996722;28;20053;-87
2023/01/12 08:46:28;;;;;;;0.20;0.10;;;;;;;;;;4970917;28;20050;-87
2023/01/12 08:48:57;;;;;;;0.20;0.10;;;;;;;;;;4985742;28;20056;-88
2023/01/12 08:51:23;;;;;;;0.20;0.10;;;;;;;;;;4970977;28;20130;-85
2023/01/12 08:53:49;;;;;;;0.20;0.10;;;;;;;;;;4990195;28;20456;-86
2023/01/12 08:56:17;;;;;;;0.20;0.10;;;;;;;;;;4986776;28;20030;-84
2023/01/12 08:58:43;;;;;;;0.20;0.10;;;;;;;;;;4972496;28;20092;-83
2023/01/12 09:01:15;;;;;;;0.45;0.45;;;;;;;;;;4988823;28;20465;-87
2023/01/12 09:03:43;;;;;;;0.20;0.10;;;;;;;;;;4983466;28;20034;-87
2023/01/12 09:06:12;;;;;;;0.20;0.10;;;;;;;;;;4975527;28;20058;-87
2023/01/12 09:08:41;;;;;;;0.20;0.10;;;;;;;;;;4986586;28;20077;-86
2023/01/12 09:11:08;;;;;;;0.20;0.10;;;;;;;;;;4996607;28;20038;-87
2023/01/12 09:13:34;;;;;;;0.20;0.10;;;;;;;;;;4979593;28;20057;-86
2023/01/12 09:16:10;;;;;;;0.20;0.10;;;;;;;;;;4983975;28;20042;-87
2023/01/12 09:18:37;;;;;;;0.20;0.10;;;;;;;;;;4992212;28;20054;-85
2023/01/12 09:21:10;;;;;;;0.20;0.10;;;;;;;;;;4971327;28;20054;-85
2023/01/12 09:23:36;;;;;;;0.20;0.10;;;;;;;;;;4984117;28;20101;-85
2023/01/12 09:26:07;;;;;;;0.20;0.10;;;;;;;;;;4985472;28;20054;-87
2023/01/12 09:28:34;;;;;;;0.20;0.10;;;;;;;;;;4996851;28;20206;-85
2023/01/12 09:31:03;;;;;;;0.20;0.10;;;;;;;;;;4980063;28;20038;-86
2023/01/12 09:33:33;;;;;;;0.20;0.10;;;;;;;;;;5008369;28;20038;-84
2023/01/12 09:36:09;;;;;;;0.20;0.00;;;;;;;;;;4988679;28;20042;-87
2023/01/12 09:38:36;;;;;;;0.20;0.10;;;;;;;;;;4968357;28;20045;-85
2023/01/12 09:41:09;;;;;;;0.20;0.10;;;;;;;;;;4991228;28;20061;-85
2023/01/12 09:49:11;;;;;;;0.20;0.10;;;;;;;;;;4983248;28;20049;-87
2023/01/12 09:51:41;;;;;;;0.20;0.15;;;;;;;;;;4995526;28;20090;-85
2023/01/12 09:54:09;;;;;;;0.20;0.10;;;;;;;;;;4993619;28;20042;-86
2023/01/12 09:56:51;;;;;;;0.20;0.10;;;;;;;;;;4990913;28;20080;-86
2023/01/12 09:59:28;;;;;;;0.20;0.10;;;;;;;;;;4991091;28;20130;-84
2023/01/12 10:01:55;;;;;;;0.20;0.10;;;;;;;;;;4989326;28;20038;-86
2023/01/12 10:04:21;;;;;;;0.20;0.10;;;;;;;;;;5004047;28;20074;-85
2023/01/12 10:06:48;;;;;;;0.20;0.10;;;;;;;;;;4990633;28;20042;-85
2023/01/12 10:09:20;;;;;;;0.20;0.10;;;;;;;;;;4989646;28;20070;-84
2023/01/12 10:11:46;;;;;;;0.20;0.10;;;;;;;;;;4993909;28;20161;-84
2023/01/12 10:14:31;;;;;;;0.20;0.10;;;;;;;;;;4991438;28;20035;-82
2023/01/12 10:17:16;;;;;;;0.20;0.10;;;;;;;;;;4990042;28;20592;-82
2023/01/12 10:19:47;;;;;;;0.20;0.10;;;;;;;;;;4988086;28;20074;-85
2023/01/12 10:22:37;;;;;;;0.30;0.30;;;;;;;;;;4982145;28;20569;-82
2023/01/12 10:25:18;;;;;;;0.20;0.20;;;;;;;;;;4995571;28;20077;-85
2023/01/12 10:27:45;;;;;;;0.20;0.10;;;;;;;;;;4990607;28;20037;-84
2023/01/12 10:30:16;;;;;;;0.57;0.05;;;;;;;;;;4991033;28;20061;-82
2023/01/12 10:32:42;;;;;;;0.20;0.10;;;;;;;;;;4984185;28;20121;-83
2023/01/12 10:35:14;;;;;;;0.20;0.10;;;;;;;;;;4971648;28;20172;-87
2023/01/12 10:37:44;;;;;;;0.20;0.10;;;;;;;;;;4994749;28;20235;-85
2023/01/12 10:40:20;;;;;;;0.20;0.10;;;;;;;;;;4990083;28;20321;-82
2023/01/12 10:45:36;;;;;;;3.72;0.30;;;;;;;;;;5002085;28;20052;-84
2023/01/12 10:48:14;;;;;;;0.20;0.10;;;;;;;;;;4990474;28;20046;-89
2023/01/12 10:50:54;;;;;;;0.20;0.10;;;;;;;;;;4987819;28;20042;-84
2023/01/12 10:53:26;;;;;;;1.42;0.15;;;;;;;;;;4998180;28;20101;-84
2023/01/12 10:55:52;;;;;;;0.20;0.10;;;;;;;;;;5008406;28;20042;-83
2023/01/12 10:58:22;;;;;;;0.30;0.30;;;;;;;;;;4991128;28;20775;-87
2023/01/12 11:00:50;;;;;;;1.27;0.95;;;;;;;;;;4988902;28;20038;-83
2023/01/12 11:03:36;;;;;;;0.20;0.10;;;;;;;;;;4981937;28;20070;-82
2023/01/12 11:06:15;;;;;;;0.20;0.10;;;;;;;;;;4992234;28;20081;-83
2023/01/12 11:08:41;;;;;;;1.05;0.70;;;;;;;;;;4992883;28;20035;-85
2023/01/12 11:11:25;;;;;;;0.43;0.43;;;;;;;;;;5002737;28;20120;-82
2023/01/12 11:13:56;;;;;;;0.20;0.10;;;;;;;;;;5005075;28;20097;-83
2023/01/12 11:16:23;;;;;;;0.20;0.10;;;;;;;;;;5005474;28;20089;-84
2023/01/12 11:18:52;;;;;;;0.20;0.10;;;;;;;;;;4988820;28;20038;-85
2023/01/12 11:21:22;;;;;;;0.20;0.10;;;;;;;;;;5001845;28;20046;-86
2023/01/12 11:23:51;;;;;;;0.20;0.10;;;;;;;;;;4994720;28;20038;-82
2023/01/12 11:26:23;;;;;;;0.30;0.20;;;;;;;;;;4990713;28;20061;-87
2023/01/12 11:28:51;;;;;;;0.20;0.10;;;;;;;;;;4995469;28;20085;-85
2023/01/12 11:31:38;;;;;;;0.20;0.10;;;;;;;;;;4977391;28;20053;-85
2023/01/12 11:34:12;;;;;;;1.20;1.10;;;;;;;;;;5004410;28;20614;-84
2023/01/12 11:36:42;;;;;;;0.20;0.10;;;;;;;;;;4992048;28;20030;-86
2023/01/12 11:39:12;;;;;;;0.20;0.10;;;;;;;;;;4977946;28;20134;-85
2023/01/12 11:45:02;;;;;;;0.30;0.30;;;;;;;;;;4991199;28;20418;-88
2023/01/12 11:47:36;;;;;;;0.20;0.10;;;;;;;;;;5003519;28;20063;-88
2023/01/12 11:50:05;;;;;;;0.20;0.10;;;;;;;;;;4982729;28;20042;-85
2023/01/12 11:52:31;;;;;;;0.20;0.10;;;;;;;;;;4986696;28;20085;-84
2023/01/12 11:55:00;;;;;;;0.40;0.20;;;;;;;;;;4994826;28;20121;-84
2023/01/12 11:57:35;;;;;;;0.20;0.17;;;;;;;;;;4998045;28;20052;-86
2023/01/12 12:00:17;;;;;;;0.30;0.20;;;;;;;;;;5011137;28;20038;-86
2023/01/12 12:02:53;;;;;;;0.20;0.10;;;;;;;;;;4961364;28;20548;-87
2023/01/12 12:05:34;;;;;;;0.20;0.10;;;;;;;;;;4999798;28;20044;-88
2023/01/12 12:08:09;;;;;;;0.20;0.10;;;;;;;;;;4987972;28;20074;-87
2023/01/12 12:10:42;;;;;;;0.20;0.10;;;;;;;;;;4985382;28;20038;-85
2023/01/12 12:13:30;;;;;;;0.20;0.10;;;;;;;;;;4974481;28;20065;-86
2023/01/12 12:15:58;;;;;;;0.20;0.10;;;;;;;;;;4998939;28;20042;-90
2023/01/12 12:18:44;;;;;;;0.20;0.10;;;;;;;;;;4978201;28;20052;-87
2023/01/12 12:21:28;;;;;;;0.47;0.43;;;;;;;;;;4977880;28;20038;-86
2023/01/12 12:24:05;;;;;;;0.30;0.10;;;;;;;;;;5004233;28;20038;-86
2023/01/12 12:26:35;;;;;;;0.20;0.10;;;;;;;;;;4987009;28;20050;-83
2023/01/12 12:29:01;;;;;;;2.38;0.90;;;;;;;;;;4996259;28;20058;-85
2023/01/12 12:31:57;;;;;;;2.65;0.30;;;;;;;;;;4976938;28;20053;-92
2023/01/12 12:34:42;;;;;;;0.20;0.10;;;;;;;;;;4979080;28;20409;-85
2023/01/12 12:37:28;;;;;;;0.20;0.10;;;;;;;;;;4977547;28;20039;-88
2023/01/12 12:39:57;;;;;;;0.20;0.13;;;;;;;;;;4996102;28;20092;-86
2023/01/12 12:45:36;;;;;;;0.20;0.10;;;;;;;;;;4996024;28;20046;-84
2023/01/12 12:48:17;;;;;;;0.20;0.10;;;;;;;;;;5011173;28;20473;-89
2023/01/12 12:50:46;;;;;;;0.20;0.10;;;;;;;;;;4986752;28;20053;-86
2023/01/12 12:53:15;;;;;;;0.20;0.10;;;;;;;;;;4973362;28;20519;-87
2023/01/12 12:55:42;;;;;;;0.20;0.10;;;;;;;;;;4997635;28;20046;-86
2023/01/12 12:58:20;;;;;;;1.00;0.77;;;;;;;;;;4995903;28;20043;-82
2023/01/12 13:03:39;;;;;;;0.20;0.10;;;;;;;;;;5014400;28;20516;-86
2023/01/12 13:06:24;;;;;;;0.25;0.25;;;;;;;;;;4996607;28;20046;-87
2023/01/12 13:08:51;;;;;;;0.20;0.10;;;;;;;;;;4976924;28;20681;-85
2023/01/12 13:11:18;;;;;;;0.20;0.10;;;;;;;;;;4995848;28;20035;-85
2023/01/12 13:14:04;;;;;;;0.20;0.10;;;;;;;;;;4977406;28;20124;-90
2023/01/12 13:16:30;;;;;;;0.20;0.10;;;;;;;;;;4986588;28;20042;-86
2023/01/12 13:19:00;;;;;;;4.60;0.25;;;;;;;;;;4995507;28;20078;-88
2023/01/12 13:21:28;;;;;;;0.20;0.10;;;;;;;;;;4996236;28;20527;-87
2023/01/12 13:24:12;;;;;;;0.20;0.10;;;;;;;;;;4974689;28;20520;-86
2023/01/12 13:26:40;;;;;;;0.20;0.10;;;;;;;;;;5000002;28;20061;-87
2023/01/12 13:29:25;;;;;;;0.20;0.17;;;;;;;;;;4993491;28;20049;-86
2023/01/12 13:32:13;;;;;;;0.20;0.10;;;;;;;;;;5001662;28;20050;-88
2023/01/12 13:34:44;;;;;;;0.20;0.10;;;;;;;;;;4987386;28;20452;-86
2023/01/12 13:37:13;;;;;;;0.20;0.10;;;;;;;;;;4992650;28;20030;-87
2023/01/12 13:39:57;;;;;;;0.20;0.10;;;;;;;;;;4993295;28;20334;-87
2023/01/12 13:45:21;;;;;;;0.20;0.10;;;;;;;;;;4981435;28;20112;-87
2023/01/12 13:47:49;;;;;;;0.25;0.25;;;;;;;;;;4970136;28;20053;-86
2023/01/12 13:50:29;;;;;;;0.25;0.20;;;;;;;;;;4998859;28;20039;-88
2023/01/12 13:52:56;;;;;;;0.20;0.10;;;;;;;;;;4990339;28;20041;-87
2023/01/12 13:55:26;;;;;;;0.20;0.10;;;;;;;;;;4990844;28;20425;-85
2023/01/12 13:57:56;;;;;;;6.10;0.35;;;;;;;;;;4988992;28;20053;-85
2023/01/12 14:00:22;;;;;;;0.20;0.10;;;;;;;;;;4969865;28;20503;-87
2023/01/12 14:02:49;;;;;;;0.73;0.73;;;;;;;;;;5039824;23;20102;-84
2023/01/12 14:05:18;;;;;;;0.20;0.10;;;;;;;;;;5025736;28;20041;-82
2023/01/12 14:07:53;;;;;;;0.20;0.20;;;;;;;;;;5030671;28;20033;-85
2023/01/12 14:10:22;;;;;;;0.20;0.10;;;;;;;;;;5023600;28;20128;-84
2023/01/12 14:12:58;;;;;;;0.20;0.10;;;;;;;;;;5031055;28;20043;-87
2023/01/12 14:18:18;;;;;;;0.20;0.10;;;;;;;;;;5027461;28;20041;-84
2023/01/12 14:20:46;;;;;;;0.20;0.10;;;;;;;;;;5022636;28;20040;-84
2023/01/12 14:23:14;;;;;;;0.20;0.10;;;;;;;;;;5032820;28;20033;-86
2023/01/12 14:25:41;;;;;;;0.20;0.10;;;;;;;;;;5032854;28;20768;-84
2023/01/12 14:28:18;;;;;;;0.20;0.10;;;;;;;;;;5026186;28;20045;-86
2023/01/12 14:30:49;;;;;;;0.20;0.10;;;;;;;;;;5044401;28;20037;-84
2023/01/12 14:33:23;;;;;;;0.20;0.10;;;;;;;;;;5014315;28;20041;-84
2023/01/12 14:35:54;;;;;;;1.05;0.20;;;;;;;;;;5027338;28;20060;-83
2023/01/12 14:38:22;;;;;;;0.20;0.10;;;;;;;;;;5031584;28;20048;-86
2023/01/12 14:40:49;;;;;;;0.20;0.10;;;;;;;;;;5008549;28;20579;-85
2023/01/12 14:46:29;;;;;;;0.20;0.10;;;;;;;;;;4997488;28;20080;-83
2023/01/12 14:48:55;;;;;;;0.20;0.10;;;;;;;;;;4973155;28;20169;-86
2023/01/12 14:51:36;;;;;;;0.20;0.10;;;;;;;;;;5009557;28;20184;-83
2023/01/12 14:54:01;;;;;;;0.20;0.10;;;;;;;;;;5028719;28;20081;-83
2023/01/12 14:56:31;;;;;;;0.20;0.10;;;;;;;;;;5014081;28;20127;-85
2023/01/12 14:59:16;;;;;;;0.20;0.10;;;;;;;;;;5034897;28;20059;-83
2023/01/12 15:01:42;;;;;;;0.20;0.10;;;;;;;;;;5024753;28;20037;-84
2023/01/12 15:04:14;;;;;;;0.20;0.10;;;;;;;;;;5017733;28;20048;-83
2023/01/12 15:06:42;;;;;;;0.20;0.10;;;;;;;;;;5014768;28;20076;-83
2023/01/12 15:09:25;;;;;;;0.20;0.10;;;;;;;;;;5019818;28;20038;-84
2023/01/12 15:11:51;;;;;;;0.20;0.10;;;;;;;;;;5013057;28;20045;-84
2023/01/12 15:14:23;;;;;;;0.20;0.10;;;;;;;;;;5022189;28;20030;-83
2023/01/12 15:27:56;;;;;;;0.20;0.10;;;;;;;;;;5027516;28;20501;-83
2023/01/12 15:30:22;;;;;;;0.20;0.10;;;;;;;;;;5010110;28;20041;-84
2023/01/12 15:32:48;;;;;;;0.20;0.08;;;;;;;;;;5011239;28;20044;-85
2023/01/12 15:35:16;;;;;;;0.20;0.10;;;;;;;;;;5007773;28;20041;-83
2023/01/12 15:37:42;;;;;;;0.20;0.10;;;;;;;;;;5020871;28;20853;-82
2023/01/12 15:40:08;;;;;;;0.20;0.10;;;;;;;;;;4998802;28;20049;-81
2023/01/12 15:42:34;;;;;;;0.20;0.10;;;;;;;;;;5011004;28;20045;-83
2023/01/12 15:45:00;;;;;;;0.20;0.10;;;;;;;;;;5022072;28;20488;-83
2023/01/12 15:47:27;;;;;;;0.20;0.10;;;;;;;;;;5021010;28;20041;-85
2023/01/12 15:49:56;;;;;;;0.20;0.10;;;;;;;;;;4999873;28;20133;-85
2023/01/12 15:52:23;;;;;;;0.20;0.10;;;;;;;;;;5001946;28;20128;-86
2023/01/12 15:54:52;;;;;;;0.20;0.10;;;;;;;;;;5031279;28;20045;-88
2023/01/12 15:57:18;;;;;;;0.20;0.10;;;;;;;;;;5038201;28;20072;-84
2023/01/12 15:59:45;;;;;;;0.20;0.10;;;;;;;;;;5021869;28;20492;-84
2023/01/12 16:02:20;;;;;;;0.20;0.10;;;;;;;;;;5019935;28;20041;-82
2023/01/12 16:04:46;;;;;;;0.20;0.10;;;;;;;;;;5006595;28;20116;-85
2023/01/12 16:07:12;;;;;;;0.20;0.10;;;;;;;;;;5007923;28;20625;-82
2023/01/12 16:09:39;;;;;;;0.20;0.10;;;;;;;;;;5016942;28;20048;-85
2023/01/12 16:12:06;;;;;;;0.20;0.10;;;;;;;;;;5020106;28;20049;-83
2023/01/12 16:14:32;;;;;;;0.20;0.10;;;;;;;;;;5014160;28;20385;-84